Hilo, HI (96720)

4:21 AM HST on April 27, 2015 (GMT -1000)
Hilo International | | Change Station
CLOSE
Current Station
Airport
Location: Hilo,
Elevation: 36 ft
Nearby Weather Stations

Elev 36 ft 19.72 °N, 155.05 °W | Updated 28 minutes ago

Overcast
Overcast
69 °F
Feels Like 69 °F
N
4
Wind Variable Wind from SSW

Today
High -- | Low -- °F
--% Chance of Precip.
Yesterday
High -- | Low -- °F
Precip. -- in
5:54 AM 6:42 PM
Waxing Gibbous, 65% visible
Pressure 29.99 in
Visibility 10.0 miles
Clouds Overcast 7000 ft
Dew Point 64 °F
Humidity 84%
Rainfall 0.00 in
Snow Depth Not available.
UV 0 out of 12
Pollen Not available.
Air Quality Not available.
Flu Activity Regional
METAR PHTO 271353Z 21003KT 10SM OVC070 21/18 A3000 RMK AO2 SLP156 T02060178

More Conditions Fewer Conditions

Pressure 29.99 in
Visibility 10.0 miles
Clouds Overcast 7000 ft
Dew Point 64 °F
Humidity 84%
Rainfall 0.00 in
Snow Depth Not available.
UV 0 out of 12
Pollen Not available.
Air Quality Not available.
Flu Activity Regional
METAR PHTO 271353Z 21003KT 10SM OVC070 21/18 A3000 RMK AO2 SLP156 T02060178

More Conditions Fewer Conditions

10-Day Weather Forecast

Almanac

Astronomy

Apr. 27, 2015 Rise Set
Actual Time
Civil Twilight
Nautical Twilight
Astronomical Twilight
Moon
Length of Visible Light
Length of Day
Tomorrow will be .
, % of the Moon is Illuminated

Today's Extremes

State Highs State Lows

Community

WunderPhotos

Upload Photos

1,817,319 photos uploaded!

WunderBlogs® & News

Nearby

Air Quality

  Air Quality AQ Index Pollutant
Not available.

Snow Depth

Station Depth Elevation

Earthquake Activity

City Distance Mag. Time & Date
Minimum magnitude displayed is 2.5.

Coastal Water Temperatures

Place Temperature

Stations

Nearby Weather Stations

Station Location Temp. Windchill Dew Point Humidity Wind Precip. Elev Updated Type